Terminal Aerodrome Forecast
Issued by NWS

Home | Current Version | Previous Version | Text Only | Print | Product List | Glossary On
Versions: 1 2 3 4 5 6 7 8 9 10 11 12 13
000
FTUS42 TJSJ 140527
TAFKPK
TAF
TKPK 140527Z 1406/1506 VRB05KT P6SM SCT020
     FM141200 07010KT P6SM SCT020
      AMD NOT SKED TIL 141100=

USA.gov is the U.S. government's official web portal to all federal, state and local government web resources and services.